Bountiful, Utah
Current Conditions -  °F | °C
As of 5:53 AM on Friday 28 Nov 2014 (Local Time) from KSLC Reporting Station
Broken Clouds Broken Clouds  
Wind Chill: 40°   Ceiling: 18000
Heat Index: 44°   Visibility: 10mi
Dew Point: 24°   Wind: 8mph
Humidity: 45%   Direction: 120°ESE
Pressure: 30.02"   Gusts: NA
Location:  40.88°N, 111.87°W
Report Text: KSLC 281253Z 12007KT 10SM BKN180 07/M04 A3002 RMK AO2 SLP150 T00671044
Loading
Personal Weather Stations






























Interactive Weather Map New forecast layout! Learn more

10-Day Weather Forecast

Advertisements
Track Severe Weather on mobile